Eight Mile, Alabama
Current Conditions -  °F | °C
As of 2:56 PM on Wednesday 26 Nov 2014 (Local Time) from KMOB Reporting Station
Clear Clear  
Wind Chill: 62°   Ceiling: Unl
Heat Index: 62°   Visibility: 10mi
Dew Point: 31°   Wind: 10mph
Humidity: 31%   Direction: 210°SSW
Pressure: 30.17"   Gusts: NA
Location:  30.76°N, 88.13°W
Report Text: KMOB 262056Z 21009KT 10SM CLR 17/M01 A3017 RMK AO2 SLP214 T01671006 56017
Loading
Personal Weather Stations






























Interactive Weather Map New forecast layout! Learn more

10-Day Weather Forecast

Advertisements
Track Severe Weather on mobile